createdAt,value
2023-03-05T00:00:07.950Z,0
2023-03-05T00:00:48.460Z,0
2023-03-05T00:01:28.982Z,0
2023-03-05T00:02:09.539Z,0
2023-03-05T00:05:47.044Z,0
2023-03-05T00:06:27.580Z,0
2023-03-05T00:07:11.881Z,0
2023-03-05T00:07:52.365Z,0
2023-03-05T00:10:11.705Z,0
2023-03-05T00:10:52.228Z,0
2023-03-05T00:11:32.745Z,0
2023-03-05T00:12:13.256Z,0
2023-03-05T00:16:16.366Z,0
2023-03-05T00:16:57.510Z,0
2023-03-05T00:17:39.031Z,0
2023-03-05T00:18:19.674Z,0
2023-03-05T00:19:00.173Z,0
2023-03-05T00:19:40.703Z,0
2023-03-05T00:20:21.249Z,0
2023-03-05T00:27:06.678Z,0
2023-03-05T00:27:47.184Z,0
2023-03-05T00:28:27.696Z,0
2023-03-05T00:29:08.216Z,0
2023-03-05T00:29:48.763Z,0
2023-03-05T00:30:29.284Z,0
2023-03-05T00:31:09.863Z,0
2023-03-05T00:31:50.426Z,0
2023-03-05T00:32:31.040Z,0
2023-03-05T00:38:36.610Z,0
2023-03-05T00:39:17.128Z,0
2023-03-05T00:39:57.649Z,0
2023-03-05T00:40:38.286Z,0
2023-03-05T00:41:18.677Z,0
2023-03-05T00:41:59.210Z,0
2023-03-05T00:42:39.739Z,0
2023-03-05T00:43:20.265Z,0
2023-03-05T00:44:00.777Z,0
2023-03-05T00:44:41.312Z,0
2023-03-05T00:50:06.788Z,0
2023-03-05T00:50:47.318Z,0
2023-03-05T00:51:27.846Z,0
2023-03-05T00:52:08.359Z,0
2023-03-05T00:52:48.898Z,0
2023-03-05T00:53:29.411Z,0
2023-03-05T00:54:09.929Z,0
2023-03-05T00:54:50.444Z,0
2023-03-05T00:55:31.028Z,0
2023-03-05T01:02:56.745Z,0
2023-03-05T01:03:38.017Z,0
2023-03-05T01:04:18.527Z,0
2023-03-05T01:04:59.058Z,0
2023-03-05T01:05:39.693Z,0
2023-03-05T01:06:20.151Z,0
2023-03-05T01:07:00.666Z,0
2023-03-05T01:07:41.201Z,0
2023-03-05T01:14:26.534Z,0
2023-03-05T01:15:07.071Z,0
2023-03-05T01:15:47.627Z,0
2023-03-05T01:16:28.206Z,0
2023-03-05T01:17:08.710Z,0
2023-03-05T01:17:49.274Z,0
2023-03-05T01:18:29.805Z,0
2023-03-05T01:21:08.449Z,0
2023-03-05T01:21:48.986Z,0
2023-03-05T01:22:29.564Z,0
2023-03-05T01:23:10.096Z,0
2023-03-05T01:27:13.273Z,0
2023-03-05T01:27:53.818Z,0
2023-03-05T01:28:34.378Z,0
2023-03-05T01:31:12.976Z,0
2023-03-05T01:31:53.472Z,0
2023-03-05T01:32:34.830Z,0
2023-03-05T01:33:14.614Z,0
2023-03-05T01:37:17.780Z,0
2023-03-05T01:37:58.320Z,0
2023-03-05T01:38:38.845Z,0
2023-03-05T01:39:19.366Z,0
2023-03-05T01:39:59.909Z,0
2023-03-05T01:40:40.430Z,0
2023-03-05T01:41:20.962Z,0
2023-03-05T01:42:01.459Z,0
2023-03-05T01:42:41.996Z,0
2023-03-05T01:48:07.857Z,0
2023-03-05T01:48:49.050Z,0
2023-03-05T01:49:29.555Z,0
2023-03-05T01:50:10.066Z,0
2023-03-05T01:50:50.605Z,0
2023-03-05T01:51:31.125Z,0
2023-03-05T01:52:11.670Z,0
2023-03-05T01:52:52.185Z,0
2023-03-05T02:00:17.957Z,0
2023-03-05T02:00:58.553Z,0
2023-03-05T02:01:39.029Z,0
2023-03-05T02:02:20.371Z,0
2023-03-05T02:03:00.876Z,0
2023-03-05T02:03:41.521Z,0
2023-03-05T02:04:21.948Z,0
2023-03-05T02:05:02.444Z,0
2023-03-05T02:07:56.536Z,0
2023-03-05T02:08:37.176Z,0
2023-03-05T02:09:17.704Z,0
2023-03-05T02:09:58.186Z,0
2023-03-05T02:14:01.570Z,0
2023-03-05T02:14:42.140Z,0
2023-03-05T02:16:55.879Z,0
2023-03-05T02:17:37.296Z,0
2023-03-05T02:18:17.803Z,0
2023-03-05T02:18:59.313Z,0
2023-03-05T02:21:34.157Z,0
2023-03-05T02:22:14.639Z,0
2023-03-05T02:22:55.746Z,0
2023-03-05T02:23:36.913Z,0
2023-03-05T02:25:39.012Z,0
2023-03-05T02:26:19.526Z,0
2023-03-05T02:27:00.042Z,0
2023-03-05T02:27:40.526Z,0
2023-03-05T02:28:21.023Z,0
2023-03-05T02:29:01.531Z,0
2023-03-05T02:29:42.016Z,0
2023-03-05T02:30:22.524Z,0
2023-03-05T02:31:03.038Z,0
2023-03-05T02:31:43.557Z,0
2023-03-05T02:36:29.743Z,0
2023-03-05T02:37:10.895Z,0
2023-03-05T02:37:51.375Z,0
2023-03-05T02:38:31.896Z,0
2023-03-05T02:39:12.420Z,0
2023-03-05T02:39:53.762Z,0
2023-03-05T02:44:32.682Z,0
2023-03-05T02:45:14.189Z,0
2023-03-05T02:45:55.578Z,0
2023-03-05T02:46:35.999Z,0
2023-03-05T02:49:05.183Z,0
2023-03-05T02:49:45.783Z,0
2023-03-05T02:50:26.278Z,0
2023-03-05T02:51:06.809Z,0
2023-03-05T02:53:09.167Z,0
2023-03-05T02:55:47.385Z,0
2023-03-05T02:56:27.948Z,0
2023-03-05T02:57:09.183Z,0
2023-03-05T02:57:49.787Z,0
2023-03-05T03:00:43.836Z,0
2023-03-05T03:01:24.397Z,0
2023-03-05T03:02:04.910Z,0
2023-03-05T03:02:45.468Z,0
2023-03-05T03:05:16.391Z,0
2023-03-05T03:05:58.798Z,0
2023-03-05T03:06:40.362Z,0
2023-03-05T03:07:20.908Z,0
2023-03-05T03:10:37.483Z,0
2023-03-05T03:11:18.512Z,0
2023-03-05T03:11:59.037Z,0
2023-03-05T03:12:39.553Z,0
2023-03-05T03:14:53.141Z,0
2023-03-05T03:15:35.422Z,0
2023-03-05T03:16:15.983Z,0
2023-03-05T03:16:59.328Z,0
2023-03-05T03:19:16.870Z,0
2023-03-05T03:19:57.939Z,0
2023-03-05T03:20:40.063Z,0
2023-03-05T03:21:21.269Z,0
2023-03-05T03:23:38.342Z,0
2023-03-05T03:24:22.544Z,0
2023-03-05T03:25:03.092Z,0
2023-03-05T03:25:46.946Z,0
2023-03-05T03:28:00.216Z,0
2023-03-05T03:28:40.648Z,0
2023-03-05T03:29:21.823Z,0
2023-03-05T03:30:03.031Z,0
2023-03-05T03:32:45.097Z,0
2023-03-05T03:33:25.635Z,0
2023-03-05T03:34:06.085Z,0
2023-03-05T03:34:46.635Z,0
2023-03-05T03:37:04.506Z,0
2023-03-05T03:37:45.034Z,0
2023-03-05T03:38:25.533Z,0
2023-03-05T03:39:06.771Z,0
2023-03-05T03:41:09.972Z,0
2023-03-05T03:41:51.250Z,0
2023-03-05T03:42:31.766Z,0
2023-03-05T03:43:12.264Z,0
2023-03-05T03:43:52.774Z,0
2023-03-05T03:44:33.317Z,0
2023-03-05T03:45:14.350Z,0
2023-03-05T03:51:19.126Z,0
2023-03-05T03:51:59.658Z,0
2023-03-05T03:52:40.167Z,0
2023-03-05T03:53:20.689Z,0
2023-03-05T03:55:59.333Z,0
2023-03-05T03:56:39.876Z,0
2023-03-05T03:57:21.741Z,0
2023-03-05T03:58:02.844Z,0
2023-03-05T04:00:04.415Z,0
2023-03-05T04:00:44.933Z,0
2023-03-05T04:01:26.162Z,0
2023-03-05T04:02:06.736Z,0
2023-03-05T04:02:47.280Z,0
2023-03-05T04:03:27.714Z,0
2023-03-05T04:04:08.542Z,0
2023-03-05T04:11:46.572Z,0
2023-03-05T04:12:27.026Z,0
2023-03-05T04:13:07.521Z,0
2023-03-05T04:13:48.055Z,0
2023-03-05T04:17:52.336Z,0
2023-03-05T04:18:32.863Z,0
2023-03-05T04:19:13.386Z,0
2023-03-05T04:19:53.904Z,0
2023-03-05T04:20:34.422Z,0
2023-03-05T04:21:14.944Z,0
2023-03-05T04:21:55.459Z,0
2023-03-05T04:22:35.970Z,0
2023-03-05T04:29:21.212Z,0
2023-03-05T04:30:01.739Z,0
2023-03-05T04:30:42.263Z,0
2023-03-05T04:31:22.848Z,0
2023-03-05T04:32:03.365Z,0
2023-03-05T04:32:43.819Z,0
2023-03-05T04:33:24.337Z,0
2023-03-05T04:34:04.850Z,0
2023-03-05T04:34:45.388Z,0
2023-03-05T04:41:31.148Z,0
2023-03-05T04:42:11.662Z,0
2023-03-05T04:42:52.193Z,0
2023-03-05T04:43:32.700Z,0
2023-03-05T04:44:13.213Z,0
2023-03-05T04:44:53.745Z,0
2023-03-05T04:45:34.275Z,0
2023-03-05T04:46:14.855Z,0
2023-03-05T04:46:55.342Z,0
2023-03-05T04:47:35.863Z,0
2023-03-05T04:54:21.245Z,0
2023-03-05T04:55:02.639Z,0
2023-03-05T04:55:43.149Z,0
2023-03-05T04:56:23.673Z,0
2023-03-05T04:57:04.950Z,0
2023-03-05T04:57:45.457Z,0
2023-03-05T05:03:11.229Z,0
2023-03-05T05:03:51.644Z,0
2023-03-05T05:04:32.160Z,0
2023-03-05T05:05:12.706Z,0
2023-03-05T05:05:54.040Z,0
2023-03-05T05:06:34.528Z,0
2023-03-05T05:07:15.047Z,0
2023-03-05T05:07:55.572Z,0
2023-03-05T05:08:36.087Z,0
2023-03-05T05:13:21.536Z,0
2023-03-05T05:14:02.058Z,0
2023-03-05T05:14:42.563Z,0
2023-03-05T05:15:23.086Z,0
2023-03-05T05:16:03.657Z,0
2023-03-05T05:16:44.115Z,0
2023-03-05T05:17:24.641Z,0
2023-03-05T05:18:05.164Z,0
2023-03-05T05:18:45.689Z,0
2023-03-05T05:24:11.150Z,0
2023-03-05T05:24:51.660Z,0
2023-03-05T05:25:32.166Z,0
2023-03-05T05:26:12.720Z,0
2023-03-05T05:26:53.236Z,0
2023-03-05T05:27:33.734Z,0
2023-03-05T05:28:14.274Z,0
2023-03-05T05:28:54.791Z,0
2023-03-05T05:29:35.343Z,0
2023-03-05T05:30:15.851Z,0
2023-03-05T05:36:35.193Z,0
2023-03-05T05:37:15.692Z,0
2023-03-05T05:37:57.203Z,0
2023-03-05T05:38:38.224Z,0
2023-03-05T05:40:51.739Z,0
2023-03-05T05:41:32.234Z,0
2023-03-05T05:42:12.747Z,0
2023-03-05T05:42:53.298Z,0
2023-03-05T05:46:28.174Z,0
2023-03-05T05:47:08.663Z,0
2023-03-05T05:47:51.618Z,0
2023-03-05T05:48:32.128Z,0
2023-03-05T05:50:51.710Z,0
2023-03-05T05:51:32.258Z,0
2023-03-05T05:52:12.757Z,0
2023-03-05T05:52:53.283Z,0
2023-03-05T05:56:16.789Z,0
2023-03-05T05:56:57.304Z,0
2023-03-05T05:57:37.825Z,0
2023-03-05T05:58:18.346Z,0
2023-03-05T05:58:58.872Z,0
2023-03-05T05:59:39.380Z,0
2023-03-05T06:00:19.927Z,0
2023-03-05T06:01:00.452Z,0
2023-03-05T06:01:41.069Z,0
2023-03-05T06:07:36.874Z,5
2023-03-05T06:08:17.395Z,5
2023-03-05T06:08:57.907Z,5
2023-03-05T06:09:38.420Z,5
2023-03-05T06:13:01.922Z,5
2023-03-05T06:13:42.466Z,5
2023-03-05T06:16:21.489Z,10
2023-03-05T06:17:01.946Z,10
2023-03-05T06:17:42.442Z,10
2023-03-05T06:18:22.963Z,10
2023-03-05T06:22:26.035Z,10
2023-03-05T06:23:06.573Z,10
2023-03-05T06:23:47.090Z,10
2023-03-05T06:24:27.629Z,10
2023-03-05T06:25:08.163Z,10
2023-03-05T06:25:48.680Z,10
2023-03-05T06:26:29.190Z,10
2023-03-05T06:27:10.005Z,10
2023-03-05T06:27:50.530Z,10
2023-03-05T06:33:57.361Z,15
2023-03-05T06:34:37.881Z,20
2023-03-05T06:35:18.411Z,20
2023-03-05T06:35:59.060Z,20
2023-03-05T06:36:39.479Z,20
2023-03-05T06:37:19.992Z,20
2023-03-05T06:39:58.209Z,20
2023-03-05T06:40:38.737Z,20
2023-03-05T06:41:19.265Z,25
2023-03-05T06:41:59.782Z,25
2023-03-05T06:46:02.948Z,30
2023-03-05T06:46:43.366Z,25
2023-03-05T06:47:23.893Z,25
2023-03-05T06:48:04.477Z,25
2023-03-05T06:48:44.952Z,25
2023-03-05T06:49:25.517Z,30
2023-03-05T06:50:06.046Z,30
2023-03-05T06:50:46.587Z,30
2023-03-05T06:51:27.083Z,35
2023-03-05T06:56:13.175Z,40
2023-03-05T06:56:53.727Z,40
2023-03-05T06:57:35.071Z,40
2023-03-05T06:58:15.589Z,40
2023-03-05T06:58:56.089Z,40
2023-03-05T06:59:36.624Z,40
2023-03-05T07:00:17.139Z,40
2023-03-05T07:00:57.689Z,45
2023-03-05T07:07:55.045Z,50
2023-03-05T07:08:35.546Z,45
2023-03-05T07:09:16.088Z,45
2023-03-05T07:09:56.635Z,45
2023-03-05T07:12:13.460Z,40
2023-03-05T07:12:54.945Z,40
2023-03-05T07:13:38.845Z,35
2023-03-05T07:14:20.262Z,35
2023-03-05T07:16:36.024Z,30
2023-03-05T07:17:16.523Z,30
2023-03-05T07:17:57.050Z,30
2023-03-05T07:18:37.574Z,30
2023-03-05T07:22:40.949Z,50
2023-03-05T07:23:21.464Z,55
2023-03-05T07:24:02.013Z,60
2023-03-05T07:24:43.210Z,65
2023-03-05T07:25:23.733Z,70
2023-03-05T07:28:01.880Z,75
2023-03-05T07:28:43.369Z,80
2023-03-05T07:29:23.875Z,85
2023-03-05T07:30:04.388Z,85
2023-03-05T07:34:22.711Z,105
2023-03-05T07:35:07.032Z,110
2023-03-05T07:35:49.168Z,110
2023-03-05T07:36:30.284Z,105
2023-03-05T07:37:11.890Z,105
2023-03-05T07:38:08.184Z,100
2023-03-05T07:38:48.734Z,95
2023-03-05T07:39:36.652Z,95
2023-03-05T07:41:06.773Z,90
2023-03-05T07:43:18.877Z,85
2023-03-05T07:45:35.162Z,85
2023-03-05T07:46:26.257Z,85
2023-03-05T07:47:13.135Z,80
2023-03-05T07:47:58.222Z,80
2023-03-05T07:49:28.151Z,70
2023-03-05T07:50:09.294Z,70
2023-03-05T07:51:35.654Z,70
2023-03-05T07:52:20.657Z,65
2023-03-05T07:53:50.668Z,65
2023-03-05T07:55:19.136Z,65
2023-03-05T07:56:06.164Z,65
2023-03-05T07:58:17.649Z,65
2023-03-05T07:59:47.120Z,65
2023-03-05T08:00:31.170Z,70
2023-03-05T08:01:18.151Z,75
2023-03-05T08:02:08.235Z,80
2023-03-05T08:03:00.174Z,85
2023-03-05T08:04:33.793Z,95
2023-03-05T08:05:20.643Z,100
2023-03-05T08:07:25.911Z,115
2023-03-05T08:09:39.051Z,125
2023-03-05T08:11:09.178Z,135
2023-03-05T08:11:57.349Z,135
2023-03-05T08:13:29.190Z,145
2023-03-05T08:14:57.157Z,160
2023-03-05T08:15:41.227Z,155
2023-03-05T08:16:27.376Z,160
2023-03-05T08:17:57.135Z,160
2023-03-05T08:18:39.631Z,160
2023-03-05T08:19:22.156Z,160
2023-03-05T08:20:14.934Z,165
2023-03-05T08:21:03.743Z,155
2023-03-05T08:21:46.136Z,160
2023-03-05T08:23:59.120Z,155
2023-03-05T08:24:39.669Z,155
2023-03-05T08:25:20.130Z,155
2023-03-05T08:26:00.616Z,150
2023-03-05T08:29:23.914Z,155
2023-03-05T08:30:04.421Z,155
2023-03-05T08:30:44.941Z,150
2023-03-05T08:31:25.570Z,150
2023-03-05T08:32:06.024Z,150
2023-03-05T08:32:46.486Z,150
2023-03-05T08:33:26.972Z,155
2023-03-05T08:34:07.496Z,160
2023-03-05T08:34:48.008Z,160
2023-03-05T08:40:54.301Z,185
2023-03-05T08:41:34.817Z,185
2023-03-05T08:42:15.332Z,190
2023-03-05T08:42:55.872Z,190
2023-03-05T08:43:36.402Z,195
2023-03-05T08:44:16.954Z,205
2023-03-05T08:44:57.475Z,210
2023-03-05T08:45:37.997Z,215
2023-03-05T08:46:18.556Z,220
2023-03-05T08:50:33.741Z,240
2023-03-05T08:51:15.839Z,225
2023-03-05T08:51:56.348Z,215
2023-03-05T08:52:38.831Z,205
2023-03-05T08:55:07.888Z,175
2023-03-05T08:55:48.417Z,170
2023-03-05T08:56:28.967Z,170
2023-03-05T08:57:09.491Z,170
2023-03-05T09:01:12.615Z,190
2023-03-05T09:01:53.200Z,190
2023-03-05T09:02:34.339Z,190
2023-03-05T09:03:14.989Z,190
2023-03-05T09:03:56.344Z,195
2023-03-05T09:04:36.808Z,190
2023-03-05T09:05:17.461Z,190
2023-03-05T09:08:51.694Z,175
2023-03-05T09:09:32.207Z,175
2023-03-05T09:10:12.751Z,170
2023-03-05T09:10:53.285Z,175
2023-03-05T09:13:49.825Z,165
2023-03-05T09:14:30.340Z,160
2023-03-05T09:15:10.854Z,150
2023-03-05T09:15:51.341Z,145
2023-03-05T09:19:14.519Z,145
2023-03-05T09:19:55.941Z,145
2023-03-05T09:20:37.030Z,140
2023-03-05T09:21:17.608Z,135
2023-03-05T09:21:58.749Z,135
2023-03-05T09:22:39.266Z,130
2023-03-05T09:28:44.478Z,135
2023-03-05T09:29:24.998Z,130
2023-03-05T09:30:05.536Z,125
2023-03-05T09:30:46.073Z,125
2023-03-05T09:31:26.632Z,125
2023-03-05T09:32:07.153Z,135
2023-03-05T09:32:47.649Z,135
2023-03-05T09:33:28.143Z,145
2023-03-05T09:34:08.660Z,155
2023-03-05T09:34:49.198Z,160
2023-03-05T09:39:44.354Z,185
2023-03-05T09:40:24.854Z,190
2023-03-05T09:41:05.406Z,200
2023-03-05T09:41:45.956Z,200
2023-03-05T09:46:02.628Z,170
2023-03-05T09:46:43.126Z,170
2023-03-05T09:47:23.664Z,170
2023-03-05T09:48:04.181Z,180
2023-03-05T09:52:08.260Z,225
2023-03-05T09:52:48.752Z,225
2023-03-05T09:53:29.265Z,225
2023-03-05T09:54:09.796Z,225
2023-03-05T09:54:50.306Z,225
2023-03-05T09:55:30.837Z,235
2023-03-05T09:56:11.363Z,240
2023-03-05T09:56:51.887Z,245
2023-03-05T10:01:06.540Z,260
2023-03-05T10:01:47.078Z,260
2023-03-05T10:02:27.617Z,260
2023-03-05T10:03:08.182Z,260
2023-03-05T10:05:37.961Z,250
2023-03-05T10:06:19.051Z,245
2023-03-05T10:06:59.573Z,235
2023-03-05T10:07:41.062Z,225
2023-03-05T10:09:53.876Z,205
2023-03-05T10:10:34.368Z,210
2023-03-05T10:11:14.916Z,215
2023-03-05T10:11:55.419Z,220
2023-03-05T10:14:39.386Z,205
2023-03-05T10:16:52.748Z,195
2023-03-05T10:17:33.296Z,195
2023-03-05T10:18:13.811Z,195
2023-03-05T10:18:58.183Z,185
2023-03-05T10:21:26.219Z,160
2023-03-05T10:22:06.784Z,150
2023-03-05T10:22:47.357Z,145
2023-03-05T10:23:27.901Z,135
2023-03-05T10:25:30.902Z,125
2023-03-05T10:26:11.393Z,125
2023-03-05T10:26:52.546Z,125
2023-03-05T10:27:33.042Z,130
2023-03-05T10:28:13.561Z,130
2023-03-05T10:28:54.145Z,135
2023-03-05T10:29:34.660Z,140
2023-03-05T10:32:13.040Z,170
2023-03-05T10:32:53.532Z,175
2023-03-05T10:33:33.963Z,185
2023-03-05T10:34:14.486Z,185
2023-03-05T10:39:09.471Z,165
2023-03-05T10:39:49.983Z,165
2023-03-05T10:40:30.529Z,165
2023-03-05T10:41:11.089Z,165
2023-03-05T10:44:45.210Z,160
2023-03-05T10:45:25.763Z,160
2023-03-05T10:46:06.371Z,155
2023-03-05T10:46:47.483Z,145
2023-03-05T10:50:10.131Z,110
2023-03-05T10:50:50.706Z,110
2023-03-05T10:51:31.248Z,110
2023-03-05T10:52:11.792Z,110
2023-03-05T10:52:52.338Z,110
2023-03-05T10:53:32.931Z,105
2023-03-05T10:54:13.492Z,95
2023-03-05T10:54:54.007Z,90
2023-03-05T10:55:34.543Z,85
2023-03-05T11:00:59.836Z,65
2023-03-05T11:01:40.381Z,65
2023-03-05T11:02:21.055Z,65
2023-03-05T11:03:01.559Z,70
2023-03-05T11:03:42.078Z,75
2023-03-05T11:04:22.611Z,80
2023-03-05T11:05:05.099Z,80
2023-03-05T11:05:43.745Z,85
2023-03-05T11:06:24.417Z,95
2023-03-05T11:11:49.880Z,120
2023-03-05T11:12:30.551Z,115
2023-03-05T11:13:11.038Z,115
2023-03-05T11:13:51.565Z,115
2023-03-05T11:14:32.107Z,115
2023-03-05T11:15:12.689Z,115
2023-03-05T11:15:53.264Z,115
2023-03-05T11:16:33.762Z,120
2023-03-05T11:17:14.315Z,120
2023-03-05T11:22:40.254Z,125
2023-03-05T11:23:20.821Z,125
2023-03-05T11:24:01.388Z,125
2023-03-05T11:24:41.903Z,125
2023-03-05T11:25:22.476Z,120
2023-03-05T11:26:03.001Z,115
2023-03-05T11:26:43.554Z,110
2023-03-05T11:27:24.123Z,105
2023-03-05T11:28:04.745Z,100
2023-03-05T11:34:10.379Z,85
2023-03-05T11:34:50.926Z,90
2023-03-05T11:35:31.623Z,90
2023-03-05T11:36:12.091Z,95
2023-03-05T11:36:52.637Z,100
2023-03-05T11:37:33.208Z,100
2023-03-05T11:38:13.759Z,105
2023-03-05T11:38:54.294Z,105
2023-03-05T11:41:32.513Z,120
2023-03-05T11:42:13.026Z,130
2023-03-05T11:42:53.512Z,135
2023-03-05T11:43:34.044Z,135
2023-03-05T11:47:10.428Z,95
2023-03-05T11:47:50.946Z,95
2023-03-05T11:48:32.020Z,95
2023-03-05T11:51:05.547Z,110
2023-03-05T11:51:46.132Z,110
2023-03-05T11:52:26.644Z,105
2023-03-05T11:53:07.189Z,100
2023-03-05T11:55:50.218Z,80
2023-03-05T11:56:30.746Z,80
2023-03-05T11:57:11.233Z,80
2023-03-05T11:57:52.131Z,80
2023-03-05T11:58:32.693Z,80
2023-03-05T11:59:14.103Z,80
2023-03-05T11:59:54.646Z,85
2023-03-05T12:00:35.142Z,85
2023-03-05T12:03:29.281Z,90
2023-03-05T12:04:11.501Z,95
2023-03-05T12:04:53.923Z,100
2023-03-05T12:07:31.560Z,110
2023-03-05T12:08:12.132Z,110
2023-03-05T12:08:53.283Z,115
2023-03-05T12:09:33.759Z,125
2023-03-05T12:12:56.299Z,155
2023-03-05T12:13:36.815Z,160
2023-03-05T12:14:18.197Z,165
2023-03-05T12:14:58.684Z,170
2023-03-05T12:15:39.199Z,170
2023-03-05T12:16:19.766Z,175
2023-03-05T12:17:00.234Z,175
2023-03-05T12:17:41.266Z,170
2023-03-05T12:24:38.026Z,140
2023-03-05T12:25:18.611Z,140
2023-03-05T12:25:59.989Z,135
2023-03-05T12:26:42.161Z,130
2023-03-05T12:28:55.871Z,120
2023-03-05T12:29:37.312Z,115
2023-03-05T12:30:17.862Z,110
2023-03-05T12:30:58.537Z,110
2023-03-05T12:34:32.356Z,130
2023-03-05T12:35:12.901Z,135
2023-03-05T12:35:53.480Z,140
2023-03-05T12:36:33.909Z,145
2023-03-05T12:40:37.039Z,165
2023-03-05T12:41:18.320Z,170
2023-03-05T12:41:58.836Z,165
2023-03-05T12:42:39.374Z,160
2023-03-05T12:43:19.890Z,155
2023-03-05T12:44:00.413Z,155
2023-03-05T12:44:40.936Z,155
2023-03-05T12:45:21.468Z,155
2023-03-05T12:52:47.444Z,155
2023-03-05T12:53:27.957Z,155
2023-03-05T12:54:08.465Z,155
2023-03-05T12:54:49.006Z,150
2023-03-05T12:55:30.412Z,150
2023-03-05T12:56:12.381Z,150
2023-03-05T12:56:51.450Z,150
2023-03-05T12:57:32.002Z,150
2023-03-05T13:04:24.481Z,135
2023-03-05T13:05:05.020Z,140
2023-03-05T13:05:45.520Z,145
2023-03-05T13:06:26.049Z,150
2023-03-05T13:10:29.563Z,150
2023-03-05T13:11:10.087Z,145
2023-03-05T13:11:50.715Z,145
2023-03-05T13:12:31.192Z,145
2023-03-05T13:13:11.742Z,135
2023-03-05T13:13:52.294Z,130
2023-03-05T13:14:32.858Z,125
2023-03-05T13:15:13.401Z,115
2023-03-05T13:15:54.177Z,115
2023-03-05T13:22:39.361Z,115
2023-03-05T13:23:19.923Z,115
2023-03-05T13:24:00.460Z,110
2023-03-05T13:26:39.156Z,105
2023-03-05T13:27:19.707Z,100
2023-03-05T13:28:00.221Z,95
2023-03-05T13:28:40.755Z,95
2023-03-05T13:32:44.060Z,75
2023-03-05T13:33:24.588Z,70
2023-03-05T13:34:05.134Z,70
2023-03-05T13:34:47.808Z,65
2023-03-05T13:35:26.185Z,60
2023-03-05T13:36:06.725Z,60
2023-03-05T13:36:47.228Z,60
2023-03-05T13:37:27.791Z,60
2023-03-05T13:38:08.348Z,60
2023-03-05T13:45:34.099Z,40
2023-03-05T13:46:15.119Z,40
2023-03-05T13:46:55.138Z,40
2023-03-05T13:47:35.697Z,35
2023-03-05T13:48:16.175Z,35
2023-03-05T13:48:56.770Z,35
2023-03-05T13:49:37.244Z,30
2023-03-05T13:50:18.043Z,30
2023-03-05T13:50:58.282Z,25
2023-03-05T13:53:36.477Z,20
2023-03-05T13:54:16.991Z,20
2023-03-05T13:54:57.506Z,25
2023-03-05T13:55:38.038Z,30
2023-03-05T13:59:01.349Z,55
2023-03-05T13:59:41.896Z,55
2023-03-05T14:00:22.433Z,60
2023-03-05T14:01:03.013Z,60
2023-03-05T14:01:43.519Z,65
2023-03-05T14:02:24.045Z,70
2023-03-05T14:03:04.520Z,70
2023-03-05T14:03:45.057Z,75
2023-03-05T14:04:25.634Z,75
2023-03-05T14:05:06.139Z,75
2023-03-05T14:12:02.853Z,100
2023-03-05T14:12:43.382Z,100
2023-03-05T14:13:23.936Z,105
2023-03-05T14:14:04.478Z,105
2023-03-05T14:18:07.786Z,100
2023-03-05T14:18:48.253Z,100
2023-03-05T14:19:29.032Z,95
2023-03-05T14:20:09.578Z,90
2023-03-05T14:20:50.112Z,90
2023-03-05T14:21:30.685Z,85
2023-03-05T14:22:11.219Z,85
2023-03-05T14:22:51.747Z,80
2023-03-05T14:23:32.307Z,80
2023-03-05T14:29:48.199Z,80
2023-03-05T14:30:28.801Z,80
2023-03-05T14:31:09.331Z,80
2023-03-05T14:31:49.855Z,80
2023-03-05T14:35:53.055Z,75
2023-03-05T14:36:33.534Z,75
2023-03-05T14:37:14.052Z,75
2023-03-05T14:37:54.629Z,75
2023-03-05T14:38:35.105Z,75
2023-03-05T14:39:15.621Z,75
2023-03-05T14:39:56.169Z,75
2023-03-05T14:40:36.729Z,75
2023-03-05T14:41:17.382Z,75
2023-03-05T14:41:57.808Z,75
2023-03-05T14:48:14.028Z,80
2023-03-05T14:48:54.553Z,85
2023-03-05T14:49:35.645Z,85
2023-03-05T14:52:14.282Z,75
2023-03-05T14:52:54.817Z,75
2023-03-05T14:53:35.329Z,70
2023-03-05T14:54:15.832Z,70
2023-03-05T14:58:19.888Z,60
2023-03-05T14:59:00.418Z,60
2023-03-05T14:59:40.960Z,55
2023-03-05T15:00:21.600Z,50
2023-03-05T15:01:02.198Z,50
2023-03-05T15:01:42.615Z,45
2023-03-05T15:02:23.220Z,45
2023-03-05T15:03:03.664Z,45
2023-03-05T15:07:18.886Z,45
2023-03-05T15:07:59.522Z,50
2023-03-05T15:08:40.040Z,50
2023-03-05T15:09:20.514Z,55
2023-03-05T15:14:56.920Z,65
2023-03-05T15:15:37.466Z,65
2023-03-05T15:16:18.053Z,65
2023-03-05T15:16:58.487Z,65
2023-03-05T15:19:57.327Z,65
2023-03-05T15:20:38.643Z,65
2023-03-05T15:21:19.197Z,65
2023-03-05T15:22:01.287Z,65
2023-03-05T15:22:42.377Z,65
2023-03-05T15:25:40.000Z,65
2023-03-05T15:26:22.502Z,65
2023-03-05T15:27:07.404Z,65
2023-03-05T15:27:47.957Z,65
2023-03-05T15:30:01.027Z,65
2023-03-05T15:30:41.575Z,65
2023-03-05T15:31:22.140Z,65
2023-03-05T15:32:02.641Z,65
2023-03-05T15:35:26.117Z,70
2023-03-05T15:36:06.575Z,70
2023-03-05T15:36:47.160Z,70
2023-03-05T15:37:27.700Z,70
2023-03-05T15:38:08.232Z,70
2023-03-05T15:38:48.756Z,70
2023-03-05T15:39:29.966Z,70
2023-03-05T15:43:45.510Z,60
2023-03-05T15:44:26.054Z,60
2023-03-05T15:45:07.586Z,60
2023-03-05T15:45:48.887Z,60
2023-03-05T15:48:03.115Z,55
2023-03-05T15:48:44.532Z,55
2023-03-05T15:49:25.037Z,55
2023-03-05T15:50:05.581Z,55
2023-03-05T15:52:48.640Z,50
2023-03-05T15:53:29.175Z,45
2023-03-05T15:54:09.706Z,45
2023-03-05T15:54:50.242Z,45
2023-03-05T15:55:30.736Z,45
2023-03-05T15:56:11.231Z,45
2023-03-05T15:56:51.702Z,45
2023-03-05T15:57:32.255Z,45
2023-03-05T16:02:57.991Z,35
2023-03-05T16:03:38.504Z,35
2023-03-05T16:04:18.972Z,35
2023-03-05T16:05:00.205Z,35
2023-03-05T16:05:40.706Z,30
2023-03-05T16:06:21.302Z,30
2023-03-05T16:07:01.798Z,30
2023-03-05T16:07:42.340Z,30
2023-03-05T16:14:39.635Z,25
2023-03-05T16:15:20.196Z,25
2023-03-05T16:16:00.807Z,25
2023-03-05T16:16:41.288Z,25
2023-03-05T16:20:44.535Z,20
2023-03-05T16:21:25.075Z,20
2023-03-05T16:22:05.600Z,20
2023-03-05T16:22:46.155Z,20
2023-03-05T16:23:26.694Z,20
2023-03-05T16:24:07.251Z,20
2023-03-05T16:24:47.795Z,15
2023-03-05T16:25:28.344Z,15
2023-03-05T16:26:08.907Z,15
2023-03-05T16:32:54.420Z,15
2023-03-05T16:33:34.978Z,15
2023-03-05T16:34:15.509Z,15
2023-03-05T16:34:56.062Z,15
2023-03-05T16:35:36.709Z,15
2023-03-05T16:38:15.162Z,15
2023-03-05T16:38:55.677Z,15
2023-03-05T16:39:36.276Z,15
2023-03-05T16:40:16.780Z,10
2023-03-05T16:43:40.145Z,10
2023-03-05T16:44:20.717Z,10
2023-03-05T16:45:01.270Z,10
2023-03-05T16:45:41.816Z,10
2023-03-05T16:46:22.463Z,10
2023-03-05T16:47:02.987Z,10
2023-03-05T16:47:43.512Z,10
2023-03-05T16:48:24.021Z,5
2023-03-05T16:51:02.508Z,5
2023-03-05T16:51:43.669Z,5
2023-03-05T16:52:24.233Z,5
2023-03-05T16:53:04.800Z,5
2023-03-05T16:55:47.616Z,5
2023-03-05T16:56:28.198Z,5
2023-03-05T16:57:09.428Z,5
2023-03-05T16:59:48.142Z,0
2023-03-05T17:00:28.686Z,0
2023-03-05T17:01:09.237Z,0
2023-03-05T17:01:49.688Z,0
2023-03-05T17:04:32.822Z,0
2023-03-05T17:05:13.410Z,0
2023-03-05T17:05:53.923Z,0
2023-03-05T17:06:34.472Z,0
2023-03-05T17:07:15.076Z,0
2023-03-05T17:07:55.736Z,0
2023-03-05T17:08:36.145Z,0
2023-03-05T17:09:16.797Z,0
2023-03-05T17:09:57.261Z,0
2023-03-05T17:16:14.417Z,0
2023-03-05T17:16:55.036Z,0
2023-03-05T17:17:35.596Z,0
2023-03-05T17:18:16.788Z,0
2023-03-05T17:20:59.546Z,0
2023-03-05T17:21:41.905Z,0
2023-03-05T17:22:20.562Z,0
2023-03-05T17:23:01.815Z,0
2023-03-05T17:23:42.314Z,0
2023-03-05T17:24:22.960Z,0
2023-03-05T17:25:04.188Z,0
2023-03-05T17:28:38.935Z,0
2023-03-05T17:29:19.481Z,0
2023-03-05T17:30:00.636Z,0
2023-03-05T17:30:41.137Z,0
2023-03-05T17:33:15.768Z,0
2023-03-05T17:33:56.288Z,0
2023-03-05T17:34:37.039Z,0
2023-03-05T17:35:17.482Z,0
2023-03-05T17:39:20.590Z,0
2023-03-05T17:40:01.205Z,0
2023-03-05T17:40:41.692Z,0
2023-03-05T17:43:19.876Z,0
2023-03-05T17:44:00.415Z,0
2023-03-05T17:44:40.911Z,0
2023-03-05T17:45:21.467Z,0
2023-03-05T17:49:24.785Z,0
2023-03-05T17:50:05.290Z,0
2023-03-05T17:50:45.849Z,0
2023-03-05T17:51:26.390Z,0
2023-03-05T17:52:06.961Z,0
2023-03-05T17:52:47.511Z,0
2023-03-05T17:53:28.039Z,0
2023-03-05T17:54:08.586Z,0
2023-03-05T17:54:49.183Z,0
2023-03-05T18:01:46.109Z,0
2023-03-05T18:02:27.274Z,0
2023-03-05T18:03:07.807Z,0
2023-03-05T18:03:49.173Z,0
2023-03-05T18:07:08.149Z,0
2023-03-05T18:07:52.339Z,0
2023-03-05T18:08:34.409Z,0